Time;durP1;ratioP1;P1;durP2;ratioP2;P2;SDS_P1;SDS_P2;PMS_P1;PMS_P2;Temp;Humidity;BMP_temperature;BMP_pressure;BME280_temperature;BME280_humidity;BME280_pressure;Samples;Min_cycle;Max_cycle;Signal;HPM_P1;HPM_P2
2022/04/17 00:02:08;;;;;;;12.77;3.30;;;;;;;0.56;100.00;100112.22;4366551;32;20061;-79
2022/04/17 00:04:34;;;;;;;7.25;2.70;;;;;;;0.76;100.00;100159.69;4369993;32;20857;-76
2022/04/17 00:07:01;;;;;;;8.40;3.17;;;;;;;0.80;100.00;100167.16;4358045;32;20027;-76
2022/04/17 00:09:27;;;;;;;8.90;3.53;;;;;;;0.50;100.00;100118.13;4347159;32;20110;-76
2022/04/17 00:11:54;;;;;;;8.98;3.42;;;;;;;0.71;100.00;100155.66;4356050;32;20069;-76
2022/04/17 00:14:21;;;;;;;10.10;2.47;;;;;;;0.68;100.00;100163.13;4339229;33;20445;-76
2022/04/17 00:16:47;;;;;;;8.80;2.87;;;;;;;0.59;100.00;100162.25;4356737;32;20409;-76
2022/04/17 00:19:14;;;;;;;5.35;2.83;;;;;;;0.38;100.00;100119.38;4356624;32;20388;-76
2022/04/17 00:21:40;;;;;;;3.62;2.50;;;;;;;0.32;100.00;100107.56;4367918;32;20368;-77
2022/04/17 00:24:08;;;;;;;4.55;2.78;;;;;;;0.58;100.00;100157.94;4361520;32;20472;-76
2022/04/17 00:26:35;;;;;;;8.98;2.70;;;;;;;0.28;100.00;100115.00;4368863;32;20043;-76
2022/04/17 00:29:01;;;;;;;4.50;2.85;;;;;;;0.17;100.00;100096.75;4361815;32;20047;-77
2022/04/17 00:31:28;;;;;;;4.80;2.60;;;;;;;0.20;100.00;100100.91;4356495;32;20085;-76
2022/04/17 00:33:54;;;;;;;4.68;2.03;;;;;;;0.41;100.00;100145.56;4355279;32;20159;-78
2022/04/17 00:36:21;;;;;;;6.18;2.65;;;;;;;0.36;100.00;100144.19;4354511;32;20538;-80
2022/04/17 00:38:47;;;;;;;4.15;2.95;;;;;;;0.34;100.00;100138.25;4354828;32;20409;-77
2022/04/17 00:41:14;;;;;;;8.27;2.95;;;;;;;0.12;100.00;100104.31;4355675;32;20039;-76
2022/04/17 00:43:48;;;;;;;5.93;2.42;;;;;;;0.32;100.00;100142.03;4342334;33;20032;-77
2022/04/17 00:46:15;;;;;;;8.13;3.00;;;;;;;0.04;100.00;100091.03;4354386;32;20060;-76
2022/04/17 00:48:41;;;;;;;8.50;2.85;;;;;;;0.16;100.00;100116.25;4355994;32;20425;-76
2022/04/17 00:51:08;;;;;;;6.47;3.05;;;;;;;0.02;100.00;100092.97;4356374;32;20081;-76
2022/04/17 00:53:37;;;;;;;10.38;3.20;;;;;;;0.26;100.00;100132.91;4365751;32;20061;-76
2022/04/17 00:56:04;;;;;;;12.65;3.42;;;;;;;0.01;100.00;100086.03;4371445;32;20028;-75
2022/04/17 00:58:32;;;;;;;6.85;3.53;;;;;;;0.20;100.00;100112.31;4357783;32;20020;-76
2022/04/17 01:00:59;;;;;;;7.45;3.67;;;;;;;0.18;100.00;100109.00;4341814;33;20917;-77
2022/04/17 01:03:28;;;;;;;6.05;3.20;;;;;;;0.15;100.00;100119.91;4342939;32;20111;-76
2022/04/17 01:05:54;;;;;;;5.53;2.53;;;;;;;0.17;100.00;100112.63;4356177;32;20423;-76
2022/04/17 01:08:21;;;;;;;7.62;3.40;;;;;;;0.17;100.00;100112.63;4353709;32;20071;-76
2022/04/17 01:10:48;;;;;;;7.25;3.28;;;;;;;0.20;100.00;100117.63;4364856;32;20200;-76
2022/04/17 01:13:17;;;;;;;2.85;2.62;;;;;;;0.12;100.00;100104.31;4370644;32;20069;-76
2022/04/17 01:15:44;;;;;;;9.73;3.17;;;;;;;0.19;100.00;100110.66;4371078;32;20044;-76
2022/04/17 01:18:10;;;;;;;7.57;3.30;;;;;;;-0.13;100.00;100063.59;4358029;32;20040;-76
2022/04/17 01:20:38;;;;;;;8.15;2.72;;;;;;;0.10;100.00;100106.31;4356618;32;20046;-76
2022/04/17 01:28:52;;;;;;;4.50;3.20;;;;;;;0.02;100.00;100104.44;4352593;32;20042;-75
2022/04/17 01:31:18;;;;;;;7.47;3.92;;;;;;;0.00;100.00;100095.81;4355086;32;20101;-76
2022/04/17 01:33:44;;;;;;;7.50;3.12;;;;;;;-0.33;100.00;100041.81;4341723;33;20436;-75
2022/04/17 01:36:11;;;;;;;5.43;2.87;;;;;;;-0.08;100.00;100091.28;4353392;32;20112;-77
2022/04/17 01:38:38;;;;;;;11.30;3.80;;;;;;;-0.07;100.00;100090.28;4355498;32;20775;-75
2022/04/17 01:41:05;;;;;;;11.70;3.55;;;;;;;-0.07;100.00;100095.56;4346831;32;20028;-75
2022/04/17 01:43:31;;;;;;;5.60;2.92;;;;;;;-0.45;100.00;100034.09;4355701;32;20122;-75
2022/04/17 01:45:59;;;;;;;7.97;3.35;;;;;;;-0.32;100.00;100054.03;4341173;33;20024;-78
2022/04/17 01:48:25;;;;;;;7.82;3.50;;;;;;;-0.17;100.00;100084.25;4355738;32;20069;-75
2022/04/17 01:50:52;;;;;;;3.30;2.70;;;;;;;-0.14;100.00;100086.59;4361586;32;20171;-75
2022/04/17 01:53:20;;;;;;;4.22;2.83;;;;;;;-0.24;100.00;100075.25;4355713;32;20036;-76
2022/04/17 01:55:46;;;;;;;5.87;2.87;;;;;;;-0.29;100.00;100069.59;4354601;32;20035;-76
2022/04/17 01:58:13;;;;;;;7.35;3.50;;;;;;;-0.47;100.00;100044.00;4350779;32;20047;-76
2022/04/17 02:00:46;;;;;;;12.80;3.92;;;;;;;-0.51;100.00;100042.66;4355382;32;20435;-75
2022/04/17 02:03:13;;;;;;;17.37;5.62;;;;;;;-0.21;100.00;100088.19;4354147;32;20065;-75
2022/04/17 02:05:40;;;;;;;18.15;4.03;;;;;;;-0.58;100.00;100023.91;4353302;32;20155;-76
2022/04/17 02:08:06;;;;;;;14.38;4.97;;;;;;;-0.19;100.00;100096.84;4351742;32;20036;-78
2022/04/17 02:10:33;;;;;;;5.78;3.00;;;;;;;-0.18;100.00;100087.87;4354436;32;20056;-75
2022/04/17 02:13:00;;;;;;;4.57;3.03;;;;;;;-0.22;100.00;100089.19;4365700;32;20119;-75
2022/04/17 02:15:27;;;;;;;5.50;3.30;;;;;;;-0.47;100.00;100046.66;4370331;32;20043;-75
2022/04/17 02:17:53;;;;;;;7.97;3.33;;;;;;;-0.27;100.00;100083.50;4356279;32;20036;-75
2022/04/17 02:20:20;;;;;;;3.95;3.10;;;;;;;-0.65;100.00;100027.31;4365310;32;20036;-78
2022/04/17 02:22:46;;;;;;;9.30;3.92;;;;;;;-0.60;100.00;100030.34;4367409;32;20042;-76
2022/04/17 02:25:13;;;;;;;7.12;3.70;;;;;;;-0.34;100.00;100077.19;4369507;32;20052;-76
2022/04/17 02:27:40;;;;;;;10.32;3.58;;;;;;;-0.58;100.00;100044.25;4371023;32;20053;-76
2022/04/17 02:30:08;;;;;;;6.25;3.20;;;;;;;-0.38;100.00;100072.19;4370192;32;20028;-76
2022/04/17 02:32:35;;;;;;;9.05;3.75;;;;;;;-0.29;100.00;100090.78;4364664;32;20028;-77
2022/04/17 02:35:03;;;;;;;7.25;3.83;;;;;;;-0.54;100.00;100037.66;4362039;32;20078;-75
2022/04/17 02:37:29;;;;;;;8.27;3.55;;;;;;;-0.38;100.00;100066.91;4357181;32;20032;-77
2022/04/17 02:39:58;;;;;;;9.27;4.10;;;;;;;-0.29;100.00;100085.50;4362793;32;20372;-76
2022/04/17 02:42:25;;;;;;;5.60;3.05;;;;;;;-0.28;100.00;100079.22;4359342;32;20361;-78
2022/04/17 02:44:51;;;;;;;9.30;3.80;;;;;;;-0.60;100.00;100040.91;4372770;32;20083;-76
2022/04/17 02:50:04;;;;;;;7.87;3.90;;;;;;;-0.31;100.00;100082.16;4360212;32;20065;-76
2022/04/17 02:52:30;;;;;;;5.45;3.28;;;;;;;-0.44;100.00;100072.81;4368846;32;20120;-77
2022/04/17 02:54:56;;;;;;;11.55;3.95;;;;;;;-0.61;100.00;100047.19;4357461;32;20048;-77
2022/04/17 02:57:23;;;;;;;12.10;3.55;;;;;;;-0.78;100.00;100027.72;4357148;32;20043;-76
2022/04/17 02:59:49;;;;;;;7.87;4.03;;;;;;;-0.39;100.00;100086.41;4358637;32;20081;-76
2022/04/17 03:07:46;;;;;;;5.90;2.87;;;;;;;-0.37;100.00;100086.25;4361108;32;20040;-77
2022/04/17 03:10:13;;;;;;;12.02;2.90;;;;;;;-0.66;100.00;100046.81;4362918;32;20245;-75
2022/04/17 03:12:45;;;;;;;;;;;;;;;-0.45;100.00;100084.34;4372529;32;20027;-75
2022/04/17 03:15:12;;;;;;;5.90;2.50;;;;;;;-0.41;100.00;100082.25;4358663;32;19978;-76
2022/04/17 03:17:38;;;;;;;7.28;3.05;;;;;;;-0.71;100.00;100033.22;4356797;32;20077;-76
2022/04/17 03:20:05;;;;;;;8.82;2.50;;;;;;;-0.40;100.00;100079.47;4355660;32;20399;-76
2022/04/17 03:22:32;;;;;;;5.07;3.17;;;;;;;-0.48;100.00;100062.66;4344671;32;20522;-75
2022/04/17 03:25:01;;;;;;;9.38;2.95;;;;;;;-0.71;100.00;100038.50;4357214;32;20069;-75
2022/04/17 03:27:30;;;;;;;5.00;3.03;;;;;;;-0.42;100.00;100083.22;4356841;32;20073;-75
2022/04/17 03:29:57;;;;;;;25.10;3.40;;;;;;;-0.42;100.00;100081.41;4358260;32;20044;-78
2022/04/17 03:32:24;;;;;;;6.80;3.10;;;;;;;-0.47;100.00;100078.41;4356283;32;20056;-76
2022/04/17 03:34:51;;;;;;;6.00;3.22;;;;;;;-0.64;100.00;100052.78;4358480;32;21515;-76
2022/04/17 03:37:17;;;;;;;5.97;3.00;;;;;;;-0.45;100.00;100079.06;4358544;32;20058;-76
2022/04/17 03:39:48;;;;;;;6.87;3.08;;;;;;;-0.47;100.00;100078.41;4365349;32;20426;-76
2022/04/17 03:42:15;;;;;;;8.60;3.25;;;;;;;-0.48;100.00;100086.47;4357881;32;20040;-76
2022/04/17 03:44:41;;;;;;;6.32;3.17;;;;;;;-0.50;100.00;100086.62;4356305;32;20055;-76
2022/04/17 03:47:08;;;;;;;12.00;3.53;;;;;;;-0.80;100.00;100035.81;4355826;32;20087;-76
2022/04/17 03:49:34;;;;;;;7.43;3.03;;;;;;;-0.53;100.00;100073.72;4357121;32;20062;-74
2022/04/17 03:52:01;;;;;;;4.40;3.08;;;;;;;-0.80;100.00;100041.09;4344747;32;20058;-75
2022/04/17 03:54:27;;;;;;;5.05;3.03;;;;;;;-0.57;100.00;100078.47;4344562;32;20043;-75
2022/04/17 03:56:54;;;;;;;7.43;3.05;;;;;;;-0.55;100.00;100080.97;4356058;32;20028;-77
2022/04/17 03:59:21;;;;;;;15.05;3.25;;;;;;;-0.62;100.00;100077.28;4358760;32;20044;-76
2022/04/17 04:01:48;;;;;;;5.37;3.22;;;;;;;-0.59;100.00;100090.19;4356510;32;20320;-76
2022/04/17 04:04:15;;;;;;;5.35;3.37;;;;;;;-0.88;100.00;100043.63;4361564;32;20428;-76
2022/04/17 04:06:42;;;;;;;4.65;3.00;;;;;;;-0.60;100.00;100088.53;4357291;32;20042;-75
2022/04/17 04:09:10;;;;;;;7.55;4.00;;;;;;;-0.56;100.00;100089.88;4356553;32;20066;-77
2022/04/17 04:11:37;;;;;;;8.38;3.83;;;;;;;-0.54;100.00;100093.22;4356978;32;20036;-75
2022/04/17 04:14:04;;;;;;;5.12;2.45;;;;;;;-0.84;100.00;100049.47;4357702;32;20091;-76
2022/04/17 04:16:30;;;;;;;7.35;2.85;;;;;;;-0.88;100.00;100043.63;4357317;32;20052;-76
2022/04/17 04:18:57;;;;;;;5.53;2.87;;;;;;;-0.76;100.00;100063.59;4364640;32;20070;-78
2022/04/17 04:21:23;;;;;;;9.27;3.30;;;;;;;-0.90;100.00;100035.03;4357127;32;20044;-74
2022/04/17 04:23:49;;;;;;;7.87;3.97;;;;;;;-0.61;100.00;100076.28;4368092;32;20073;-75
2022/04/17 04:26:16;;;;;;;17.12;3.33;;;;;;;-0.57;100.00;100075.00;4372079;32;20093;-75
2022/04/17 04:28:42;;;;;;;11.60;3.40;;;;;;;-0.48;100.00;100082.03;4359043;32;20083;-74
2022/04/17 04:31:11;;;;;;;4.72;2.70;;;;;;;-0.59;100.00;100072.53;4370160;32;20407;-78
2022/04/17 04:33:40;;;;;;;8.52;3.05;;;;;;;-0.61;100.00;100068.34;4369053;32;20042;-74
2022/04/17 04:36:11;;;;;;;12.45;3.90;;;;;;;-0.81;100.00;100057.94;4356399;32;20432;-74
2022/04/17 04:38:39;;;;;;;7.47;3.72;;;;;;;-0.54;100.00;100087.94;4356215;32;20040;-75
2022/04/17 04:41:05;;;;;;;6.60;2.90;;;;;;;-0.45;100.00;100088.81;4366140;32;20047;-75
2022/04/17 04:43:32;;;;;;;6.05;2.65;;;;;;;-0.45;100.00;100086.19;4364963;32;20052;-75
2022/04/17 04:46:08;;;;;;;8.93;4.07;;;;;;;-0.53;100.00;100084.28;4355250;32;20362;-75
2022/04/17 04:51:20;;;;;;;10.18;3.00;;;;;;;-0.69;100.00;100052.41;4356643;32;20028;-74
2022/04/17 04:53:46;;;;;;;7.35;2.97;;;;;;;-0.32;100.00;100101.66;4358598;32;20057;-75
2022/04/17 04:56:13;;;;;;;9.68;3.30;;;;;;;-0.28;100.00;100101.22;4362062;32;20086;-77
2022/04/17 04:58:40;;;;;;;5.28;2.62;;;;;;;-0.27;100.00;100094.09;4362674;32;20102;-81
2022/04/17 05:01:07;;;;;;;5.62;2.90;;;;;;;-0.40;100.00;100058.28;4361099;32;20426;-73
2022/04/17 05:03:34;;;;;;;7.82;3.12;;;;;;;-0.08;100.00;100103.69;4357359;32;20117;-74
2022/04/17 05:06:02;;;;;;;9.20;3.28;;;;;;;-0.07;100.00;100106.16;4356622;32;20073;-74
2022/04/17 05:08:28;;;;;;;9.25;2.95;;;;;;;-0.09;100.00;100108.16;4357006;32;20044;-74
2022/04/17 05:10:55;;;;;;;6.03;3.65;;;;;;;-0.02;100.00;100103.06;4366842;32;20413;-79
2022/04/17 05:13:22;;;;;;;8.43;3.10;;;;;;;-0.30;100.00;100062.62;4355379;32;20464;-75
2022/04/17 05:15:48;;;;;;;10.73;3.25;;;;;;;0.08;100.00;100109.09;4356340;32;20856;-73
2022/04/17 05:18:15;;;;;;;10.40;3.67;;;;;;;0.12;100.00;100107.78;4355724;32;20078;-73
2022/04/17 05:20:41;;;;;;;5.57;3.35;;;;;;;0.15;100.00;100111.97;4357309;32;20427;-74
2022/04/17 05:23:26;;;;;;;4.03;2.75;;;;;;;0.15;100.00;100096.06;4359904;32;20408;-75
2022/04/17 05:25:55;;;;;;;9.40;3.58;;;;;;;0.33;100.00;100114.56;4359298;32;20083;-73
2022/04/17 05:31:38;;;;;;;5.60;2.90;;;;;;;0.48;100.00;100114.78;4358577;32;20100;-72
2022/04/17 05:34:05;;;;;;;6.72;3.15;;;;;;;0.56;100.00;100106.91;4366473;32;20040;-73
2022/04/17 05:36:32;;;;;;;7.10;2.85;;;;;;;0.72;100.00;100112.28;4356526;32;20036;-79
2022/04/17 05:38:58;;;;;;;10.75;3.72;;;;;;;0.79;100.00;100109.81;4356379;32;20047;-71
2022/04/17 05:41:29;;;;;;;9.07;2.90;;;;;;;0.89;100.00;100107.88;4370390;32;20105;-73
2022/04/17 05:44:00;;;;;;;9.05;3.55;;;;;;;0.85;100.00;100108.34;4369586;32;20077;-72
2022/04/17 05:46:29;;;;;;;8.00;3.28;;;;;;;0.95;100.00;100105.56;4346719;32;20044;-77
2022/04/17 05:48:57;;;;;;;6.78;3.05;;;;;;;1.12;100.00;100101.13;4370247;32;20042;-73
2022/04/17 05:51:23;;;;;;;4.40;3.03;;;;;;;1.13;100.00;100078.91;4356232;32;20074;-72
2022/04/17 05:53:50;;;;;;;7.75;3.92;;;;;;;1.22;100.00;100107.12;4374661;32;20115;-72
2022/04/17 05:56:16;;;;;;;8.48;2.97;;;;;;;1.24;100.00;100105.13;4359865;32;20158;-81
2022/04/17 05:58:43;;;;;;;3.92;2.70;;;;;;;1.28;100.00;100095.88;4357836;32;20032;-72
2022/04/17 06:01:09;;;;;;;11.82;3.20;;;;;;;1.15;100.00;100068.97;4366671;32;20059;-71
2022/04/17 06:03:36;;;;;;;13.18;3.40;;;;;;;1.43;100.00;100104.84;4363928;32;20414;-74
2022/04/17 06:06:03;;;;;;;3.70;3.03;;;;;;;1.47;100.00;100107.16;4360998;32;20075;-73
2022/04/17 06:08:29;;;;;;;6.00;3.65;;;;;;;1.50;100.00;100110.34;4354751;32;20384;-72
2022/04/17 06:10:57;;;;;;;5.47;3.28;;;;;;;1.69;100.00;100109.19;4355000;32;20074;-71
2022/04/17 06:13:23;;;;;;;5.80;2.95;;;;;;;1.74;100.00;100101.56;4369447;32;20028;-71
2022/04/17 06:15:50;;;;;;;7.03;3.12;;;;;;;1.59;100.00;100061.53;4368992;32;20051;-71
2022/04/17 06:18:16;;;;;;;8.10;3.03;;;;;;;1.86;100.00;100098.56;4355629;32;20052;-71
2022/04/17 06:20:42;;;;;;;6.45;2.72;;;;;;;1.71;100.00;100053.25;4368839;32;20024;-76
2022/04/17 06:23:16;;;;;;;5.75;2.72;;;;;;;1.93;100.00;100083.59;4366218;32;20055;-71
2022/04/17 06:25:43;;;;;;;13.02;3.22;;;;;;;1.94;100.00;100079.97;4363180;32;20388;-71
2022/04/17 06:28:09;;;;;;;6.68;3.00;;;;;;;2.08;100.00;100089.91;4356028;32;20032;-71
2022/04/17 06:30:35;;;;;;;3.75;2.22;;;;;;;1.83;100.00;100062.53;4368765;32;20043;-71
2022/04/17 06:33:02;;;;;;;4.12;2.53;;;;;;;2.23;100.00;100105.16;4363356;32;20066;-74
2022/04/17 06:38:02;;;;;;;2.70;2.25;;;;;;;2.33;100.00;100096.00;4354717;32;20360;-71
2022/04/17 06:40:34;;;;;;;8.70;2.22;;;;;;;2.37;100.00;100107.94;4354535;32;20113;-71
2022/04/17 06:43:05;;;;;;;7.68;3.10;;;;;;;2.20;100.00;100063.78;4356706;32;20058;-71
2022/04/17 06:45:34;;;;;;;10.32;2.22;;;;;;;2.28;100.00;100061.16;4356779;32;20047;-72
2022/04/17 06:48:21;;;;;;;7.85;2.55;;;;;;;2.51;100.00;100093.12;4364718;32;20020;-72
2022/04/17 06:50:50;;;;;;;4.32;1.87;;;;;;;2.75;100.00;100104.69;4354393;32;20396;-73
2022/04/17 06:53:16;;;;;;;9.00;2.95;;;;;;;2.59;100.00;100062.22;4357566;32;20031;-72
2022/04/17 06:55:45;;;;;;;5.82;1.70;;;;;;;2.86;100.00;100098.97;4367223;32;20032;-72
2022/04/17 06:58:12;;;;;;;3.78;2.25;;;;;;;2.91;100.00;100109.94;4354403;33;20036;-72
2022/04/17 07:00:38;;;;;;;5.22;2.10;;;;;;;2.62;100.00;100051.22;4357722;32;20061;-71
2022/04/17 07:03:04;;;;;;;2.15;1.95;;;;;;;2.76;100.00;100063.78;4352062;32;20391;-75
2022/04/17 07:05:31;;;;;;;3.72;2.15;;;;;;;3.03;100.00;100102.41;4356912;32;20047;-71
2022/04/17 07:08:00;;;;;;;3.87;1.90;;;;;;;3.17;100.00;100098.16;4366703;32;20044;-71
2022/04/17 07:10:28;;;;;;;3.30;2.67;;;;;;;3.04;100.00;100060.66;4367162;32;20094;-72
2022/04/17 07:12:56;;;;;;;5.28;2.50;;;;;;;3.07;100.00;100058.47;4367898;32;20061;-72
2022/04/17 07:15:25;;;;;;;3.53;1.90;;;;;;;3.24;100.00;100067.19;4353245;33;20380;-75
2022/04/17 07:17:53;;;;;;;3.28;2.03;;;;;;;3.41;100.00;100085.69;4361523;32;20856;-70
2022/04/17 07:20:21;;;;;;;2.85;2.20;;;;;;;3.51;100.00;100094.28;4363625;32;20044;-71
2022/04/17 07:22:48;;;;;;;4.15;2.30;;;;;;;3.55;100.00;100095.56;4364114;32;20039;-72
2022/04/17 07:25:14;;;;;;;4.87;2.53;;;;;;;3.57;100.00;100103.41;4368132;32;20039;-71
2022/04/17 07:27:43;;;;;;;4.28;2.22;;;;;;;3.27;100.00;100053.53;4363654;32;20464;-71
2022/04/17 07:33:16;;;;;;;3.15;2.50;;;;;;;3.61;100.00;100105.53;4367668;32;20087;-71
2022/04/17 07:35:43;;;;;;;3.70;1.83;;;;;;;3.43;100.00;100060.56;4357747;32;20055;-71
2022/04/17 07:38:10;;;;;;;4.15;2.12;;;;;;;3.66;100.00;100101.50;4367679;32;20047;-72
2022/04/17 07:40:37;;;;;;;1.92;1.67;;;;;;;3.47;100.00;100062.88;4371250;32;20061;-73
2022/04/17 07:43:04;;;;;;;2.72;2.00;;;;;;;3.88;100.00;100092.66;4369124;32;20471;-72
2022/04/17 07:45:33;;;;;;;3.62;2.33;;;;;;;3.84;100.00;100080.69;4358513;32;20046;-72
2022/04/17 07:47:59;;;;;;;1.90;1.70;;;;;;;3.78;100.00;100060.09;4371730;32;20039;-72
2022/04/17 07:50:28;;;;;;;1.70;1.60;;;;;;;4.10;100.00;100101.63;4372420;32;20048;-71
2022/04/17 07:52:54;;;;;;;5.93;2.03;;;;;;;4.04;100.00;100098.84;4371891;32;20483;-71
2022/04/17 07:55:22;;;;;;;3.45;2.08;;;;;;;3.84;100.00;100055.91;4368428;32;20172;-75
2022/04/17 07:57:55;;;;;;;1.17;1.12;;;;;;;3.88;100.00;100051.84;4358200;32;20426;-71
2022/04/17 08:00:28;;;;;;;1.45;1.35;;;;;;;4.13;100.00;100082.62;4368159;32;20044;-72
2022/04/17 08:03:20;;;;;;;1.60;1.50;;;;;;;4.13;100.00;100087.09;4365286;32;20447;-72
2022/04/17 08:05:47;;;;;;;2.28;1.50;;;;;;;3.88;100.00;100041.19;4370516;32;20413;-73
2022/04/17 08:08:14;;;;;;;4.12;1.60;;;;;;;4.29;100.00;100080.78;4366129;32;20470;-74
2022/04/17 08:10:41;;;;;;;3.30;1.58;;;;;;;4.27;100.00;100061.47;4355833;32;20078;-76
2022/04/17 08:13:07;;;;;;;5.45;2.37;;;;;;;4.10;100.00;100047.47;4353801;32;20059;-72
2022/04/17 08:15:34;;;;;;;2.17;1.95;;;;;;;4.14;100.00;100035.44;4361142;32;20174;-72
2022/04/17 08:18:00;;;;;;;4.35;1.92;;;;;;;4.54;100.00;100070.66;4356473;32;20051;-72
2022/04/17 08:20:27;;;;;;;3.17;2.17;;;;;;;4.63;100.00;100077.56;4367777;32;20089;-72
2022/04/17 08:22:53;;;;;;;2.00;1.80;;;;;;;4.67;100.00;100068.16;4370926;32;20137;-75
2022/04/17 08:25:20;;;;;;;2.55;2.10;;;;;;;4.76;100.00;100076.09;4370485;32;20040;-72
2022/04/17 08:27:48;;;;;;;2.25;1.83;;;;;;;4.79;100.00;100078.38;4360599;32;20177;-71
2022/04/17 08:30:23;;;;;;;4.68;2.08;;;;;;;4.73;100.00;100067.41;4348912;32;20420;-71
2022/04/17 08:32:49;;;;;;;2.65;1.85;;;;;;;4.72;100.00;100078.28;4354363;32;20036;-75
2022/04/17 08:35:16;;;;;;;2.90;2.28;;;;;;;4.43;100.00;100017.78;4355805;32;20052;-72
2022/04/17 08:37:43;;;;;;;2.30;2.10;;;;;;;4.81;100.00;100058.50;4357042;32;20081;-71
2022/04/17 08:40:11;;;;;;;2.17;2.08;;;;;;;4.68;100.00;100031.66;4363322;32;20039;-71
2022/04/17 08:42:39;;;;;;;2.80;1.90;;;;;;;4.96;100.00;100065.62;4365323;32;20039;-71
2022/04/17 08:45:07;;;;;;;2.90;2.20;;;;;;;4.87;100.00;100072.94;4354525;32;20027;-75
2022/04/17 08:47:35;;;;;;;3.08;2.80;;;;;;;4.75;100.00;100021.88;4342323;32;20087;-72
2022/04/17 08:50:14;;;;;;;4.80;2.47;;;;;;;5.02;100.00;100033.69;4360055;32;20044;-71
2022/04/17 08:52:47;;;;;;;3.10;2.12;;;;;;;5.19;100.00;100046.81;4348891;33;20035;-72
2022/04/17 08:55:13;;;;;;;3.55;2.28;;;;;;;5.25;100.00;100051.41;4354584;32;20198;-73
2022/04/17 08:57:40;;;;;;;2.15;1.83;;;;;;;5.38;100.00;100053.38;4352503;32;20043;-72
2022/04/17 09:00:10;;;;;;;1.65;1.55;;;;;;;5.45;100.00;100049.72;4360202;32;20044;-70
2022/04/17 09:02:37;;;;;;;2.00;1.87;;;;;;;5.41;100.00;100040.47;4361422;32;20117;-72
2022/04/17 09:05:05;;;;;;;1.77;1.67;;;;;;;5.40;100.00;100041.47;4359928;32;20109;-72
2022/04/17 09:08:10;;;;;;;3.55;2.03;;;;;;;5.23;100.00;100013.34;4364007;32;21576;-72
2022/04/17 09:10:37;;;;;;;5.22;1.62;;;;;;;5.67;100.00;100043.56;4363877;32;20377;-72
2022/04/17 09:13:04;;;;;;;3.28;2.37;;;;;;;5.76;100.00;100019.19;4356848;32;20101;-72
2022/04/17 09:15:35;;;;;;;2.97;1.80;;;;;;;5.68;100.00;100037.19;4356242;32;20036;-73
2022/04/17 09:18:05;;;;;;;1.70;1.60;;;;;;;5.77;100.00;100025.34;4355016;32;20099;-72
2022/04/17 09:20:32;;;;;;;1.62;1.48;;;;;;;5.48;99.22;99978.25;4357717;32;20035;-76
2022/04/17 09:23:00;;;;;;;2.35;2.15;;;;;;;5.79;100.00;100028.62;4353467;32;20032;-72
2022/04/17 09:25:27;;;;;;;1.90;1.62;;;;;;;5.80;100.00;100025.78;4368944;32;20095;-70
2022/04/17 09:28:07;;;;;;;1.75;1.20;;;;;;;5.86;100.00;100021.50;4360885;32;20111;-71
2022/04/17 09:30:35;;;;;;;4.53;1.70;;;;;;;5.96;97.50;100018.50;4344455;32;20396;-75
2022/04/17 09:33:09;;;;;;;4.50;2.30;;;;;;;5.64;95.61;99977.97;4364957;32;20052;-71
2022/04/17 09:35:36;;;;;;;2.85;1.52;;;;;;;5.85;96.05;100011.00;4368007;32;20402;-72
2022/04/17 09:38:05;;;;;;;4.43;1.60;;;;;;;5.73;96.19;99970.66;4358588;32;20039;-73
2022/04/17 09:40:32;;;;;;;1.75;1.52;;;;;;;5.97;95.20;100009.50;4367452;32;20069;-74
2022/04/17 09:43:16;;;;;;;2.10;1.62;;;;;;;6.15;88.99;100007.13;4343505;32;20110;-72
2022/04/17 09:45:57;;;;;;;1.80;1.70;;;;;;;6.23;88.10;99994.63;4353833;32;20044;-74
2022/04/17 09:48:24;;;;;;;2.93;1.90;;;;;;;6.06;90.98;99949.47;4356079;32;20178;-73
2022/04/17 09:50:50;;;;;;;2.67;2.17;;;;;;;6.34;92.00;99964.63;4360817;32;20132;-73
2022/04/17 09:53:40;;;;;;;1.60;1.50;;;;;;;6.63;87.41;99981.44;4362644;32;20047;-72
2022/04/17 09:56:11;;;;;;;2.58;1.80;;;;;;;6.13;84.20;99859.44;4357677;32;20063;-72
2022/04/17 09:58:48;;;;;;;2.00;1.55;;;;;;;6.52;80.69;99919.41;4354647;32;20070;-74
2022/04/17 10:01:21;;;;;;;2.42;1.48;;;;;;;6.75;81.16;99937.00;4346546;32;20143;-72
2022/04/17 10:03:50;;;;;;;1.27;1.17;;;;;;;7.00;81.39;99965.88;4353973;32;20487;-71
2022/04/17 10:06:17;;;;;;;1.37;1.37;;;;;;;6.81;72.33;99965.63;4353255;32;20354;-76
2022/04/17 10:08:45;;;;;;;1.65;1.55;;;;;;;6.78;73.03;99958.00;4354389;32;20079;-71
2022/04/17 10:11:16;;;;;;;2.65;1.35;;;;;;;6.77;72.14;99934.13;4355521;32;20039;-71
2022/04/17 10:13:42;;;;;;;1.62;1.33;;;;;;;6.67;64.75;99947.87;4345783;32;20040;-72
2022/04/17 10:16:11;;;;;;;1.70;1.60;;;;;;;6.81;69.07;99957.59;4364232;32;20457;-75
2022/04/17 10:18:39;;;;;;;2.03;1.73;;;;;;;6.83;73.81;99955.53;4348735;32;20074;-72
2022/04/17 10:21:07;;;;;;;1.52;1.42;;;;;;;7.20;77.71;99945.28;4356134;32;20406;-71
2022/04/17 10:23:36;;;;;;;1.90;1.50;;;;;;;7.43;70.54;99950.22;4354055;32;20075;-71
2022/04/17 10:26:04;;;;;;;1.73;1.62;;;;;;;7.42;67.02;99926.34;4353770;32;20039;-72
2022/04/17 10:28:42;;;;;;;2.15;1.48;;;;;;;7.69;63.69;99942.38;4355762;32;20024;-71
2022/04/17 10:31:14;;;;;;;1.52;1.42;;;;;;;7.68;67.03;99930.03;4355100;32;20043;-72
2022/04/17 10:34:08;;;;;;;1.60;1.42;;;;;;;7.19;69.62;99942.81;4355735;32;20040;-71
2022/04/17 10:37:11;;;;;;;2.10;1.37;;;;;;;6.97;65.68;99944.84;4361189;32;20040;-72
2022/04/17 10:39:49;;;;;;;2.50;1.52;;;;;;;7.08;70.01;99936.22;4356187;32;20083;-72
2022/04/17 10:42:16;;;;;;;2.40;1.70;;;;;;;7.24;69.09;99935.84;4356407;32;20060;-71
2022/04/17 10:45:01;;;;;;;1.55;1.40;;;;;;;7.11;69.54;99892.94;4352045;32;20040;-71
2022/04/17 10:47:29;;;;;;;3.33;2.17;;;;;;;7.39;69.48;99926.75;4357262;32;20087;-75
2022/04/17 10:49:56;;;;;;;5.80;3.15;;;;;;;7.74;81.93;99899.72;4362042;32;20047;-73
2022/04/17 10:52:31;;;;;;;2.50;2.30;;;;;;;8.44;64.93;99937.47;4354056;33;20028;-72
2022/04/17 10:55:11;;;;;;;3.47;1.58;;;;;;;8.19;63.26;99875.62;4365002;32;20072;-75
2022/04/17 10:57:45;;;;;;;1.15;1.05;;;;;;;7.70;60.26;99903.84;4357014;32;20081;-71
2022/04/17 11:00:33;;;;;;;1.42;1.20;;;;;;;7.28;60.62;99888.03;4372455;32;20035;-71
2022/04/17 11:03:08;;;;;;;2.60;2.22;;;;;;;7.33;63.02;99912.31;4370754;32;20337;-71
2022/04/17 11:08:47;;;;;;;2.37;1.50;;;;;;;7.59;62.72;99876.63;4324902;33;20048;-72
2022/04/17 11:11:14;;;;;;;1.83;1.73;;;;;;;8.58;65.23;99897.13;4325218;33;20083;-72
2022/04/17 11:14:09;;;;;;;4.65;1.90;;;;;;;8.93;59.40;99900.22;4331116;32;20028;-71
2022/04/17 11:16:44;;;;;;;2.08;1.87;;;;;;;9.34;58.87;99890.78;4325441;33;20051;-71
2022/04/17 11:19:13;;;;;;;2.37;1.73;;;;;;;10.08;54.79;99879.28;4325700;33;20040;-71
2022/04/17 11:21:45;;;;;;;1.62;1.48;;;;;;;10.83;53.81;99849.28;4326135;33;20074;-71
2022/04/17 11:24:11;;;;;;;4.33;1.63;;;;;;;10.73;48.45;99886.72;4333663;33;20408;-70
2022/04/17 11:26:52;;;;;;;1.90;1.80;;;;;;;10.75;47.74;99891.88;4335932;33;20049;-71
2022/04/17 11:29:37;;;;;;;3.90;1.60;;;;;;;10.77;46.41;99879.84;4330086;33;20062;-73
2022/04/17 11:32:16;;;;;;;2.50;2.05;;;;;;;10.36;45.90;99838.38;4326555;33;20083;-71
2022/04/17 11:34:53;;;;;;;1.52;1.42;;;;;;;10.68;47.05;99881.22;4328490;33;20462;-73
2022/04/17 11:37:26;;;;;;;2.42;1.60;;;;;;;10.42;44.74;99864.37;4323515;33;20475;-71
2022/04/17 11:39:55;;;;;;;1.15;1.15;;;;;;;10.56;46.12;99864.19;4337049;33;20434;-71
2022/04/17 11:42:21;;;;;;;2.50;1.95;;;;;;;10.82;45.17;99836.06;4334694;33;20028;-71
2022/04/17 11:44:49;;;;;;;2.28;1.50;;;;;;;9.74;46.12;99857.31;4363943;32;20040;-72
2022/04/17 11:47:18;;;;;;;1.58;1.48;;;;;;;9.17;48.39;99830.59;4365187;32;20641;-70
2022/04/17 11:49:46;;;;;;;1.92;1.83;;;;;;;9.66;48.41;99855.75;4356590;32;20657;-73
2022/04/17 11:52:16;;;;;;;5.62;1.85;;;;;;;10.13;46.83;99815.66;4356510;32;20337;-71
2022/04/17 11:54:44;;;;;;;2.60;1.90;;;;;;;10.78;45.55;99781.78;4356213;32;20124;-72
2022/04/17 11:57:12;;;;;;;2.33;1.73;;;;;;;11.43;42.66;99844.75;4355379;32;20040;-71
2022/04/17 11:59:48;;;;;;;5.03;1.65;;;;;;;11.44;41.59;99801.38;4364541;32;20393;-71
2022/04/17 12:02:20;;;;;;;4.05;1.87;;;;;;;11.80;43.20;99839.06;4371470;32;20094;-71